Delhi, Texas
Current Conditions -  °F | °C
As of 11:55 PM on Monday 26 Jan 2015 (Local Time) from K3T5 Reporting Station
Clear Clear  
Wind Chill: 56°   Ceiling: Unl
Heat Index: 56°   Visibility: 10mi
Dew Point: 43°   Wind: 6mph
Humidity: 60%   Direction: 240°WSW
Pressure: 30.15"   Gusts: NA
Location:  29.8725°N, 97.3223°W
Report Text: K3T5 270555Z AUTO 24005KT 10SM CLR 14/06 A3015 RMK AO2 T01350059 10189 20132 402260032
Loading
Personal Weather Stations






























Interactive Weather Map New forecast layout! Learn more

10-Day Weather Forecast

Advertisements
Track Severe Weather on mobile